Time;durP1;ratioP1;P1;durP2;ratioP2;P2;SDS_P1;SDS_P2;PMS_P1;PMS_P2;Temp;Humidity;BMP_temperature;BMP_pressure;BME280_temperature;BME280_humidity;BME280_pressure;Samples;Min_cycle;Max_cycle;Signal;HPM_P1;HPM_P2
2022/09/06 00:02:19;;;;;;;4.77;4.47;;;23.50;49.50;;;;;;20464;6840;337463;-87
2022/09/06 00:04:47;;;;;;;4.47;4.23;;;23.20;50.00;;;;;;20689;6850;117301;-87
2022/09/06 00:07:11;;;;;;;4.93;4.30;;;23.20;50.00;;;;;;20730;6840;117044;-87
2022/09/06 00:09:37;;;;;;;4.30;3.90;;;22.80;50.50;;;;;;20694;6850;118382;-90
2022/09/06 00:12:02;;;;;;;4.60;4.28;;;22.40;50.90;;;;;;20519;6839;312036;-90
2022/09/06 00:14:29;;;;;;;4.40;3.90;;;22.60;51.50;;;;;;20539;6833;336884;-86
2022/09/06 00:16:56;;;;;;;4.37;4.00;;;22.90;51.00;;;;;;20699;6849;117295;-90
2022/09/06 00:19:21;;;;;;;5.80;3.80;;;22.70;50.80;;;;;;20758;6833;117353;-87
2022/09/06 00:21:47;;;;;;;3.90;3.73;;;22.50;51.30;;;;;;20741;6833;117964;-89
2022/09/06 00:24:12;;;;;;;4.37;4.07;;;22.20;51.60;;;;;;20709;6849;117304;-88
2022/09/06 00:26:38;;;;;;;5.20;4.30;;;22.10;51.80;;;;;;20554;6833;277031;-86
2022/09/06 00:29:04;;;;;;;4.20;3.90;;;22.30;51.90;;;;;;20544;6833;337343;-88
2022/09/06 00:31:31;;;;;;;5.03;4.50;;;22.60;51.50;;;;;;20736;6849;117644;-87
2022/09/06 00:33:56;;;;;;;4.47;4.20;;;22.50;51.40;;;;;;20738;6833;117491;-88
2022/09/06 00:36:22;;;;;;;4.50;4.10;;;22.30;51.80;;;;;;20545;6833;307482;-89
2022/09/06 00:38:48;;;;;;;5.03;4.32;;;22.40;52.40;;;;;;20498;6848;308412;-88
2022/09/06 00:41:14;;;;;;;5.90;4.30;;;22.60;51.80;;;;;;20543;6833;283976;-89
2022/09/06 00:43:39;;;;;;;4.80;4.40;;;22.80;51.40;;;;;;20690;6848;118090;-86
2022/09/06 00:46:05;;;;;;;4.20;4.00;;;22.60;52.10;;;;;;20552;6832;306935;-87
2022/09/06 00:48:30;;;;;;;3.80;3.43;;;22.60;51.90;;;;;;20755;6832;117305;-88
2022/09/06 00:50:56;;;;;;;4.43;4.13;;;22.40;52.00;;;;;;20514;6849;278360;-88
2022/09/06 00:53:23;;;;;;;4.37;4.07;;;22.40;51.70;;;;;;20536;6832;304686;-88
2022/09/06 00:55:48;;;;;;;4.25;3.97;;;22.70;51.40;;;;;;20529;6833;336835;-86
2022/09/06 00:58:14;;;;;;;4.30;3.90;;;22.80;51.00;;;;;;20712;6849;117330;-86
2022/09/06 01:00:39;;;;;;;4.70;4.30;;;22.50;51.10;;;;;;20544;6833;306520;-89
2022/09/06 01:03:05;;;;;;;4.70;4.40;;;22.50;51.30;;;;;;20546;6833;308331;-87
2022/09/06 01:06:00;;;;;;;4.97;4.57;;;22.70;51.10;;;;;;20676;6849;117449;-85
2022/09/06 01:08:46;;;;;;;5.07;4.78;;;22.50;51.10;;;;;;20526;6833;334538;-89
2022/09/06 01:11:17;;;;;;;4.63;4.33;;;22.50;51.40;;;;;;20724;6833;117253;-87
2022/09/06 01:13:53;;;;;;;5.15;4.70;;;22.30;51.50;;;;;;20475;6848;307589;-86
2022/09/06 01:16:21;;;;;;;4.25;4.05;;;22.30;51.40;;;;;;20314;6833;277649;-86
2022/09/06 01:19:14;;;;;;;3.90;3.70;;;22.50;51.20;;;;;;20672;6849;117138;-86
2022/09/06 01:21:46;;;;;;;3.67;3.47;;;22.30;51.30;;;;;;20739;6833;117175;-86
2022/09/06 01:24:37;;;;;;;4.47;4.17;;;22.00;51.90;;;;;;20722;6833;117470;-89
2022/09/06 01:27:03;;;;;;;4.80;4.40;;;21.70;52.40;;;;;;20499;6848;310859;-86
2022/09/06 01:29:45;;;;;;;4.27;3.97;;;21.80;52.10;;;;;;20738;6833;145584;-87
2022/09/06 01:32:11;;;;;;;4.32;4.00;;;21.80;52.10;;;;;;20503;6848;336145;-86
2022/09/06 01:34:41;;;;;;;4.50;4.07;;;22.00;52.10;;;;;;19940;6833;120169;-86
2022/09/06 01:37:10;;;;;;;5.35;4.50;;;21.90;52.00;;;;;;20481;6849;308212;-86
2022/09/06 01:39:36;;;;;;;4.50;4.20;;;22.00;51.70;;;;;;20738;6833;118362;-86
2022/09/06 01:42:15;;;;;;;4.23;3.93;;;21.90;51.80;;;;;;20765;6833;122259;-86
2022/09/06 01:44:47;;;;;;;4.40;4.10;;;21.60;52.10;;;;;;20504;6849;315625;-91
2022/09/06 01:47:46;;;;;;;4.30;4.10;;;21.80;52.40;;;;;;20812;6833;66722;-91
2022/09/06 01:50:48;;;;;;;3.97;3.67;;;21.70;52.30;;;;;;20772;6833;118392;-86
2022/09/06 01:53:50;;;;;;;4.27;4.07;;;21.40;52.60;;;;;;19438;7205;290396;-87
2022/09/06 01:56:29;;;;;;;4.32;4.03;;;21.70;52.50;;;;;;20281;6831;336940;-87
2022/09/06 01:59:14;;;;;;;4.10;3.87;;;22.10;52.00;;;;;;20705;6847;117283;-86
2022/09/06 02:02:03;;;;;;;3.97;3.77;;;22.00;52.00;;;;;;20718;6832;117679;-86
2022/09/06 02:04:28;;;;;;;4.83;4.53;;;21.70;52.40;;;;;;20708;6849;122599;-89
2022/09/06 02:07:00;;;;;;;4.50;4.10;;;21.40;52.90;;;;;;20742;6833;116442;-86
2022/09/06 02:09:26;;;;;;;4.83;4.43;;;21.20;53.10;;;;;;20536;6833;306613;-90
2022/09/06 02:11:52;;;;;;;4.47;4.10;;;21.50;53.50;;;;;;20762;6849;120368;-89
2022/09/06 02:14:25;;;;;;;4.77;4.37;;;21.50;53.30;;;;;;20821;6833;117036;-92
2022/09/06 02:16:50;;;;;;;4.13;3.93;;;21.30;53.30;;;;;;20754;6833;117444;-89
2022/09/06 02:19:17;;;;;;;4.47;4.07;;;21.00;53.90;;;;;;20695;6849;117397;-86
2022/09/06 02:21:42;;;;;;;4.37;3.97;;;21.00;54.40;;;;;;20717;6833;117175;-89
2022/09/06 02:24:08;;;;;;;4.47;4.18;;;20.80;53.90;;;;;;20749;6833;117728;-90
2022/09/06 02:26:33;;;;;;;3.85;3.60;;;20.70;54.10;;;;;;20697;6849;120499;-87
2022/09/06 02:29:00;;;;;;;4.10;3.70;;;20.70;54.30;;;;;;20761;6833;117425;-86
2022/09/06 02:31:36;;;;;;;4.60;4.20;;;20.60;54.40;;;;;;20557;6833;287038;-86
2022/09/06 02:34:02;;;;;;;4.40;4.20;;;20.80;54.60;;;;;;20721;6848;117959;-86
2022/09/06 02:36:27;;;;;;;4.40;4.20;;;20.80;54.30;;;;;;20758;6833;117801;-88
2022/09/06 02:38:53;;;;;;;4.80;4.50;;;20.70;54.50;;;;;;20488;6849;278470;-89
2022/09/06 02:41:21;;;;;;;4.90;4.47;;;20.90;54.60;;;;;;20787;6848;117665;-91
2022/09/06 02:43:45;;;;;;;4.40;4.00;;;20.90;54.40;;;;;;20728;6849;117590;-90
2022/09/06 02:46:12;;;;;;;4.55;4.28;;;20.80;54.60;;;;;;20821;6833;117293;-91
2022/09/06 02:48:38;;;;;;;4.27;3.90;;;20.60;54.70;;;;;;20839;6833;116232;-91
2022/09/06 02:51:03;;;;;;;4.82;4.43;;;20.40;54.80;;;;;;20576;6849;306889;-91
2022/09/06 02:53:29;;;;;;;4.30;4.10;;;20.70;54.90;;;;;;20801;6833;117228;-90
2022/09/06 02:55:55;;;;;;;4.23;3.93;;;20.70;54.50;;;;;;20764;6833;117648;-86
2022/09/06 02:58:20;;;;;;;3.90;3.60;;;20.60;54.60;;;;;;20691;6849;117075;-92
2022/09/06 03:00:46;;;;;;;4.40;4.10;;;20.60;54.80;;;;;;20549;6833;278393;-90
2022/09/06 03:03:11;;;;;;;4.13;3.87;;;20.90;54.30;;;;;;20551;6833;278537;-86
2022/09/06 03:05:37;;;;;;;4.07;3.87;;;21.50;53.30;;;;;;20483;6849;277458;-88
2022/09/06 03:08:04;;;;;;;4.33;4.03;;;21.90;52.10;;;;;;20754;6831;119823;-90
2022/09/06 03:10:29;;;;;;;4.30;3.90;;;21.90;52.10;;;;;;20761;6832;120248;-86
2022/09/06 03:12:55;;;;;;;4.50;4.10;;;21.80;52.40;;;;;;20503;6847;307152;-89
2022/09/06 03:15:20;;;;;;;10.18;5.65;;;22.00;52.40;;;;;;20544;6832;307828;-86
2022/09/06 03:17:46;;;;;;;5.47;4.93;;;22.40;54.30;;;;;;20477;6849;436176;-85
2022/09/06 03:20:11;;;;;;;5.83;5.10;;;22.60;54.40;;;;;;20759;6833;117752;-86
2022/09/06 03:22:38;;;;;;;10.38;5.70;;;22.50;54.00;;;;;;20548;6833;299387;-89
2022/09/06 03:25:03;;;;;;;7.97;5.83;;;22.40;54.10;;;;;;20687;6849;117819;-90
2022/09/06 03:27:28;;;;;;;7.30;6.10;;;21.80;54.10;;;;;;20525;6833;307407;-89
2022/09/06 03:29:54;;;;;;;6.50;5.90;;;21.50;55.80;;;;;;20756;6833;117309;-87
2022/09/06 03:32:21;;;;;;;6.62;6.03;;;21.00;56.90;;;;;;20486;6849;307278;-87
2022/09/06 03:34:46;;;;;;;6.67;6.03;;;20.80;60.10;;;;;;20541;6833;307811;-89
2022/09/06 03:37:12;;;;;;;6.80;6.20;;;20.90;60.30;;;;;;20527;6833;278816;-88
2022/09/06 03:39:38;;;;;;;7.30;6.70;;;20.80;59.00;;;;;;20475;6849;282397;-87
2022/09/06 03:42:04;;;;;;;6.83;6.23;;;20.80;59.00;;;;;;20543;6833;307459;-87
2022/09/06 03:44:32;;;;;;;6.40;6.00;;;20.80;61.50;;;;;;20541;6833;304266;-90
2022/09/06 03:46:57;;;;;;;6.82;6.25;;;20.80;61.00;;;;;;20498;6848;336612;-88
2022/09/06 03:49:26;;;;;;;6.53;6.03;;;20.90;60.70;;;;;;20754;6833;117136;-89
2022/09/06 03:51:53;;;;;;;7.27;6.67;;;20.60;60.90;;;;;;20471;6848;336646;-90
2022/09/06 03:54:18;;;;;;;7.40;6.77;;;20.60;61.50;;;;;;20540;6833;311207;-89
2022/09/06 03:56:44;;;;;;;6.85;6.35;;;20.70;60.90;;;;;;20476;6849;278078;-89
2022/09/06 03:59:09;;;;;;;6.63;6.20;;;20.80;61.00;;;;;;20546;6833;306966;-89
2022/09/06 04:01:35;;;;;;;5.60;5.20;;;20.80;60.40;;;;;;20720;6833;121270;-89
2022/09/06 04:04:01;;;;;;;7.00;6.50;;;20.60;60.70;;;;;;20470;6849;278400;-89
2022/09/06 04:06:27;;;;;;;7.30;6.70;;;20.60;61.20;;;;;;20549;6833;278355;-89
2022/09/06 04:08:53;;;;;;;6.40;6.00;;;20.70;60.50;;;;;;20542;6833;311282;-89
2022/09/06 04:11:19;;;;;;;6.00;5.50;;;20.60;60.00;;;;;;20712;6849;117366;-89
2022/09/06 04:13:45;;;;;;;6.30;5.80;;;20.60;60.00;;;;;;20526;6833;345128;-89
2022/09/06 04:16:11;;;;;;;6.17;5.57;;;20.40;59.70;;;;;;20767;6833;117381;-89
2022/09/06 04:18:37;;;;;;;5.50;5.17;;;20.40;59.70;;;;;;20715;6847;117147;-89
2022/09/06 04:21:02;;;;;;;6.35;5.85;;;20.20;60.30;;;;;;20549;6832;332743;-89
2022/09/06 04:47:11;;;;;;;5.87;5.47;;;21.10;57.60;;;;;;20917;6586;339160;-90
2022/09/06 04:49:36;;;;;;;6.20;5.80;;;21.10;58.20;;;;;;20801;6824;117592;-87
2022/09/06 04:52:02;;;;;;;6.33;5.77;;;20.80;58.70;;;;;;20849;6819;117279;-88
2022/09/06 04:54:27;;;;;;;5.57;5.07;;;20.30;59.40;;;;;;20668;6829;121584;-88
2022/09/06 04:56:53;;;;;;;5.68;5.35;;;20.00;60.20;;;;;;20417;6881;308355;-88
2022/09/06 04:59:18;;;;;;;5.63;5.33;;;20.10;60.30;;;;;;20680;6879;116564;-88
2022/09/06 05:01:44;;;;;;;5.27;4.97;;;20.10;60.40;;;;;;20626;6894;116816;-88
2022/09/06 05:04:10;;;;;;;5.47;5.00;;;19.90;60.80;;;;;;20615;6882;117824;-88
2022/09/06 05:06:35;;;;;;;6.75;6.25;;;19.70;61.10;;;;;;20352;6895;303635;-88
2022/09/06 05:09:01;;;;;;;5.68;4.97;;;19.90;60.90;;;;;;20596;6885;117445;-88
2022/09/06 05:11:26;;;;;;;7.40;6.77;;;19.90;61.10;;;;;;20358;6896;308352;-88
2022/09/06 05:13:52;;;;;;;5.40;5.03;;;20.00;60.40;;;;;;20609;6890;118499;-88
2022/09/06 05:16:18;;;;;;;5.65;5.28;;;20.00;60.50;;;;;;20607;6890;117831;-88
2022/09/06 05:18:43;;;;;;;5.75;5.35;;;19.80;61.20;;;;;;20379;6890;310118;-88
2022/09/06 05:21:09;;;;;;;5.32;5.03;;;20.00;60.90;;;;;;20598;6890;118539;-88
2022/09/06 05:23:34;;;;;;;6.20;5.70;;;20.00;60.90;;;;;;20552;6890;118056;-88
2022/09/06 05:26:00;;;;;;;6.10;5.60;;;20.10;61.60;;;;;;20370;6894;279848;-88
2022/09/06 05:28:26;;;;;;;5.93;5.33;;;20.10;61.60;;;;;;20582;6887;117823;-89
2022/09/06 05:30:52;;;;;;;5.47;5.15;;;20.20;61.40;;;;;;20409;6872;339391;-88
2022/09/06 05:33:17;;;;;;;5.73;5.33;;;20.40;59.90;;;;;;20584;6890;118019;-88
2022/09/06 05:35:43;;;;;;;5.30;4.90;;;20.40;60.00;;;;;;20549;6890;118923;-88
2022/09/06 05:38:08;;;;;;;4.87;4.60;;;20.30;60.60;;;;;;20565;6890;117819;-88
2022/09/06 05:40:34;;;;;;;5.78;5.47;;;20.20;61.10;;;;;;20356;6890;280001;-88
2022/09/06 05:42:59;;;;;;;5.28;4.87;;;20.50;61.00;;;;;;20601;6875;118714;-87
2022/09/06 05:45:25;;;;;;;5.50;5.10;;;20.60;60.80;;;;;;20416;6875;311876;-87
2022/09/06 05:47:50;;;;;;;5.20;4.80;;;20.90;59.70;;;;;;20601;6875;117469;-88
2022/09/06 05:50:16;;;;;;;5.85;5.50;;;20.90;59.80;;;;;;20384;6870;293750;-88
2022/09/06 05:52:43;;;;;;;5.23;4.73;;;21.10;59.80;;;;;;20610;6870;117612;-88
2022/09/06 05:55:09;;;;;;;5.20;4.77;;;21.10;60.00;;;;;;20590;6885;121642;-88
2022/09/06 05:57:35;;;;;;;5.20;4.90;;;21.00;60.50;;;;;;20386;6883;297203;-89
2022/09/06 06:00:01;;;;;;;5.47;5.17;;;21.30;59.60;;;;;;20392;6884;289137;-91
2022/09/06 06:02:27;;;;;;;5.70;5.27;;;21.60;59.40;;;;;;20393;6885;338657;-88
2022/09/06 06:04:53;;;;;;;5.57;5.18;;;21.90;58.00;;;;;;20410;6885;309287;-87
2022/09/06 06:07:19;;;;;;;5.73;5.33;;;22.20;59.20;;;;;;20668;6885;120469;-88
2022/09/06 06:09:44;;;;;;;5.60;5.23;;;22.00;59.30;;;;;;20649;6882;116471;-87
2022/09/06 06:12:11;;;;;;;5.10;4.80;;;21.80;60.00;;;;;;20674;6882;116546;-87
2022/09/06 06:14:37;;;;;;;5.77;5.37;;;21.60;60.70;;;;;;20453;6882;308710;-87
2022/09/06 06:17:02;;;;;;;6.63;6.23;;;21.70;60.50;;;;;;20675;6882;117286;-87
2022/09/06 06:19:28;;;;;;;5.93;5.53;;;21.70;60.40;;;;;;20659;6881;117100;-88
2022/09/06 06:21:55;;;;;;;5.68;5.28;;;21.60;60.80;;;;;;20681;6882;116832;-88
2022/09/06 06:24:19;;;;;;;5.30;5.00;;;21.50;61.30;;;;;;20464;6882;279617;-88
2022/09/06 06:26:45;;;;;;;5.87;5.27;;;21.70;59.80;;;;;;20676;6882;116924;-88
2022/09/06 06:29:10;;;;;;;5.30;4.90;;;21.70;59.60;;;;;;20462;6882;307915;-88
2022/09/06 06:31:36;;;;;;;4.90;4.40;;;21.90;57.80;;;;;;20648;6882;126169;-89
2022/09/06 06:34:02;;;;;;;5.50;5.20;;;21.90;57.90;;;;;;20444;6882;309148;-89
2022/09/06 06:36:29;;;;;;;5.03;4.67;;;22.00;57.40;;;;;;20668;6882;116968;-88
2022/09/06 06:38:53;;;;;;;5.27;4.93;;;21.90;57.70;;;;;;20629;6882;116890;-88
2022/09/06 06:41:18;;;;;;;5.77;5.40;;;21.70;58.10;;;;;;20431;6882;279711;-90
2022/09/06 06:43:44;;;;;;;5.70;5.27;;;21.80;57.40;;;;;;20378;6882;321877;-90
2022/09/06 06:46:13;;;;;;;5.43;5.03;;;22.10;56.60;;;;;;20604;6882;117585;-90
2022/09/06 06:48:42;;;;;;;5.80;5.35;;;22.00;57.10;;;;;;20393;6882;309401;-89
2022/09/06 06:51:07;;;;;;;6.40;5.87;;;22.20;56.40;;;;;;20401;6882;279969;-89
2022/09/06 06:53:34;;;;;;;5.68;5.28;;;22.60;56.00;;;;;;20443;6882;308170;-90
2022/09/06 06:55:59;;;;;;;4.80;4.57;;;22.60;56.00;;;;;;20637;6882;121819;-90
2022/09/06 06:58:24;;;;;;;5.00;4.60;;;22.50;56.60;;;;;;20622;6882;117230;-90
2022/09/06 07:00:50;;;;;;;5.95;5.10;;;22.10;57.50;;;;;;20611;6882;117262;-90
2022/09/06 07:03:17;;;;;;;5.00;4.70;;;22.10;57.50;;;;;;20598;6882;118476;-90
2022/09/06 07:05:43;;;;;;;5.10;4.80;;;22.10;57.80;;;;;;20589;6882;117895;-90
2022/09/06 07:08:09;;;;;;;4.67;4.37;;;22.20;58.10;;;;;;20612;6880;118252;-89
2022/09/06 07:10:35;;;;;;;4.23;3.83;;;22.20;58.30;;;;;;20590;6881;117378;-91
2022/09/06 07:13:00;;;;;;;4.72;4.40;;;22.30;58.10;;;;;;20407;6881;310062;-90
2022/09/06 07:15:26;;;;;;;4.65;4.35;;;22.70;55.30;;;;;;20373;6881;309656;-90
2022/09/06 07:17:52;;;;;;;4.60;4.10;;;23.20;55.20;;;;;;20380;6881;309654;-90
2022/09/06 07:20:17;;;;;;;5.00;4.60;;;23.70;53.40;;;;;;20598;6882;117366;-90
2022/09/06 07:22:42;;;;;;;4.78;4.37;;;23.80;54.20;;;;;;20406;6882;282183;-90
2022/09/06 07:25:08;;;;;;;4.80;4.30;;;24.00;54.60;;;;;;20401;6882;313838;-90
2022/09/06 07:27:34;;;;;;;4.05;3.85;;;24.20;54.30;;;;;;20639;6882;117391;-91
2022/09/06 07:29:59;;;;;;;4.55;4.25;;;24.20;54.60;;;;;;20613;6882;118392;-91
2022/09/06 07:32:25;;;;;;;4.73;4.43;;;24.10;55.00;;;;;;20595;6882;117887;-90
2022/09/06 07:34:51;;;;;;;4.70;4.40;;;23.90;56.20;;;;;;20613;6882;117377;-90
2022/09/06 07:37:17;;;;;;;4.63;4.33;;;23.90;56.10;;;;;;20616;6882;118635;-90
2022/09/06 07:39:43;;;;;;;5.50;5.00;;;23.90;56.30;;;;;;20394;6882;282930;-91
2022/09/06 07:42:09;;;;;;;4.30;4.10;;;24.20;55.30;;;;;;20643;6882;117515;-90
2022/09/06 07:44:34;;;;;;;5.33;4.43;;;24.20;54.60;;;;;;20621;6882;119897;-91
2022/09/06 07:47:05;;;;;;;4.00;3.80;;;24.00;55.10;;;;;;20608;6882;122403;-90
2022/09/06 07:49:25;;;;;;;5.40;4.80;;;24.00;55.50;;;;;;20390;6882;296889;-87
2022/09/06 07:51:51;;;;;;;5.03;4.62;;;24.30;54.00;;;;;;20599;6882;117694;-88
2022/09/06 07:54:16;;;;;;;4.75;4.45;;;24.40;54.40;;;;;;20405;6882;309229;-89
2022/09/06 07:56:42;;;;;;;4.50;4.00;;;24.60;53.30;;;;;;20612;6882;120088;-90
2022/09/06 07:59:08;;;;;;;4.97;4.37;;;24.70;53.70;;;;;;20617;6882;117330;-89
2022/09/06 08:01:36;;;;;;;4.43;4.13;;;24.60;54.50;;;;;;20607;6882;123741;-90
2022/09/06 08:04:05;;;;;;;5.50;5.00;;;24.80;55.90;;;;;;20402;6882;338932;-90
2022/09/06 08:06:31;;;;;;;5.20;4.70;;;24.80;55.90;;;;;;20612;6882;117694;-89
2022/09/06 08:08:56;;;;;;;5.30;4.90;;;25.00;56.80;;;;;;20389;6882;313809;-89
2022/09/06 08:11:22;;;;;;;5.20;4.70;;;25.30;57.00;;;;;;20400;6882;309673;-88
2022/09/06 08:13:48;;;;;;;4.60;4.40;;;25.70;52.20;;;;;;20580;6882;121334;-90
2022/09/06 08:16:15;;;;;;;5.60;5.10;;;25.80;53.10;;;;;;20394;6882;309619;-90
2022/09/06 08:18:39;;;;;;;5.67;5.10;;;26.00;53.00;;;;;;20605;6882;117905;-90
2022/09/06 08:21:17;;;;;;;5.60;5.20;;;26.00;53.30;;;;;;20390;6880;283402;-89
2022/09/06 08:23:43;;;;;;;6.47;5.40;;;26.30;53.90;;;;;;20386;6881;280606;-89
2022/09/06 08:26:09;;;;;;;5.67;5.10;;;26.60;52.40;;;;;;20604;6881;116635;-90
2022/09/06 08:28:34;;;;;;;5.65;5.28;;;26.70;52.30;;;;;;20415;6881;280456;-90
2022/09/06 08:31:09;;;;;;;5.63;5.23;;;26.90;50.00;;;;;;20394;6882;309196;-90
2022/09/06 08:33:42;;;;;;;5.63;5.13;;;27.20;50.20;;;;;;20410;6882;279380;-89
2022/09/06 08:36:07;;;;;;;5.67;5.33;;;27.50;50.70;;;;;;20688;6882;68809;-88
2022/09/06 08:38:33;;;;;;;5.33;4.57;;;27.50;51.20;;;;;;20688;6882;117150;-89
2022/09/06 08:41:15;;;;;;;5.65;5.15;;;27.40;51.80;;;;;;20474;6882;308142;-89
2022/09/06 08:43:44;;;;;;;5.00;4.70;;;27.50;51.00;;;;;;20378;6882;279671;-89
2022/09/06 08:46:09;;;;;;;6.03;4.77;;;27.80;50.50;;;;;;20604;6882;117984;-88
2022/09/06 08:48:37;;;;;;;5.43;4.90;;;27.90;50.80;;;;;;20395;6882;340771;-88
2022/09/06 08:51:20;;;;;;;6.47;4.70;;;27.90;50.20;;;;;;20612;6882;118491;-89
2022/09/06 08:53:46;;;;;;;5.30;4.90;;;27.90;50.70;;;;;;20389;6882;347871;-87
2022/09/06 08:56:22;;;;;;;5.55;5.05;;;28.20;50.70;;;;;;20630;6882;121798;-88
2022/09/06 08:59:02;;;;;;;5.07;4.73;;;28.20;51.30;;;;;;20613;6882;121257;-88
2022/09/06 09:01:28;;;;;;;5.50;5.05;;;28.30;50.60;;;;;;20319;6882;285254;-89
2022/09/06 09:03:54;;;;;;;5.70;5.20;;;28.30;50.60;;;;;;20216;6882;341791;-90
2022/09/06 09:06:20;;;;;;;5.57;4.90;;;28.70;50.10;;;;;;20606;6882;116425;-93
2022/09/06 09:08:48;;;;;;;5.50;5.00;;;28.60;51.20;;;;;;20609;6882;117168;-88
2022/09/06 09:11:16;;;;;;;5.18;4.78;;;28.50;51.10;;;;;;20394;6882;309395;-90
2022/09/06 09:13:45;;;;;;;5.10;4.60;;;28.70;49.20;;;;;;20380;6882;309323;-89
2022/09/06 09:16:11;;;;;;;5.35;4.80;;;29.00;49.50;;;;;;20407;6882;310932;-89
2022/09/06 09:18:37;;;;;;;5.70;5.20;;;29.20;49.30;;;;;;20400;6882;308826;-89
2022/09/06 09:21:02;;;;;;;5.40;5.00;;;29.40;48.60;;;;;;20594;6882;117376;-90
2022/09/06 09:23:27;;;;;;;5.10;4.80;;;29.30;48.90;;;;;;20607;6882;117441;-89
2022/09/06 09:25:54;;;;;;;5.75;5.22;;;29.00;49.10;;;;;;20402;6882;310170;-89
2022/09/06 09:28:19;;;;;;;5.10;4.77;;;29.00;49.10;;;;;;20604;6882;118429;-89
2022/09/06 09:30:49;;;;;;;4.77;4.30;;;29.00;49.80;;;;;;20607;6880;116833;-89
2022/09/06 09:33:23;;;;;;;4.60;4.20;;;28.90;50.80;;;;;;20594;6881;117743;-90
2022/09/06 09:35:50;;;;;;;5.80;5.40;;;28.80;51.90;;;;;;20595;6881;117991;-88
2022/09/06 09:38:19;;;;;;;6.83;4.00;;;28.80;51.20;;;;;;20618;6881;117295;-91
2022/09/06 09:40:50;;;;;;;6.10;4.13;;;28.90;51.00;;;;;;20379;6881;279598;-89
2022/09/06 09:43:23;;;;;;;5.47;3.93;;;29.70;47.60;;;;;;20396;6882;279592;-90
2022/09/06 09:46:13;;;;;;;4.93;3.70;;;29.80;47.30;;;;;;20600;6870;120399;-89
2022/09/06 09:48:38;;;;;;;6.60;3.30;;;29.80;47.30;;;;;;20596;6885;117413;-89
2022/09/06 09:51:21;;;;;;;3.90;3.50;;;29.50;48.40;;;;;;20601;6885;117318;-89
2022/09/06 09:53:53;;;;;;;5.70;3.70;;;29.40;48.30;;;;;;20363;6885;310249;-89
2022/09/06 09:56:23;;;;;;;4.30;3.90;;;29.60;48.60;;;;;;20570;6885;117602;-89
2022/09/06 09:58:48;;;;;;;4.00;3.70;;;29.60;48.00;;;;;;20587;6885;117726;-89
2022/09/06 10:01:14;;;;;;;5.28;3.92;;;29.40;48.80;;;;;;20410;6882;339271;-89
2022/09/06 10:03:40;;;;;;;8.07;4.00;;;29.50;46.70;;;;;;20612;6882;117966;-89
2022/09/06 10:06:05;;;;;;;4.93;4.00;;;29.40;47.50;;;;;;20411;6882;313334;-89
2022/09/06 10:08:31;;;;;;;6.13;4.23;;;29.40;46.20;;;;;;20390;6882;309686;-89
2022/09/06 10:10:56;;;;;;;6.30;4.00;;;29.60;46.60;;;;;;20607;6882;117391;-88
2022/09/06 10:13:28;;;;;;;4.13;3.70;;;29.50;47.40;;;;;;20605;6882;117879;-88
2022/09/06 10:15:53;;;;;;;5.28;3.70;;;29.30;47.90;;;;;;20405;6882;309761;-88
2022/09/06 10:18:19;;;;;;;5.25;4.00;;;29.40;46.90;;;;;;20616;6882;117371;-88
2022/09/06 10:20:45;;;;;;;4.77;4.10;;;29.30;47.50;;;;;;20423;6882;279489;-88
2022/09/06 10:23:13;;;;;;;6.93;4.23;;;29.40;46.20;;;;;;20607;6882;117392;-88
2022/09/06 10:25:46;;;;;;;6.70;4.20;;;29.30;47.30;;;;;;20374;6882;308798;-88
2022/09/06 10:28:35;;;;;;;4.50;3.70;;;29.50;46.90;;;;;;20394;6882;338883;-88
2022/09/06 10:31:36;;;;;;;6.00;3.80;;;29.70;46.90;;;;;;20394;6882;309387;-88
2022/09/06 10:34:17;;;;;;;5.60;4.10;;;30.00;47.00;;;;;;20613;6882;117852;-88
2022/09/06 10:36:43;;;;;;;5.93;4.20;;;29.90;47.50;;;;;;20375;6882;318411;-88
2022/09/06 10:39:28;;;;;;;4.97;3.53;;;30.00;46.70;;;;;;20558;6882;118767;-88
2022/09/06 10:42:00;;;;;;;5.03;4.00;;;30.00;47.00;;;;;;20610;6882;117548;-89
2022/09/06 10:45:05;;;;;;;6.50;3.87;;;29.80;47.40;;;;;;20665;6880;117013;-89
2022/09/06 10:47:32;;;;;;;3.90;3.50;;;29.60;48.00;;;;;;20596;6881;126625;-88
2022/09/06 10:49:58;;;;;;;6.57;4.30;;;29.40;48.40;;;;;;20397;6881;280458;-89
2022/09/06 10:52:34;;;;;;;4.97;3.90;;;29.60;46.00;;;;;;20608;6882;117353;-89
2022/09/06 10:55:04;;;;;;;5.40;3.73;;;29.60;47.20;;;;;;20607;6882;117602;-89
2022/09/06 10:57:28;;;;;;;5.70;3.80;;;29.50;47.90;;;;;;20603;6882;124660;-91
2022/09/06 10:59:56;;;;;;;7.05;3.90;;;29.50;48.30;;;;;;20275;6882;281215;-89
2022/09/06 11:02:39;;;;;;;7.80;4.10;;;29.70;46.00;;;;;;20439;6882;313613;-89
2022/09/06 11:05:11;;;;;;;7.10;3.97;;;30.10;46.60;;;;;;20607;6882;117494;-89
2022/09/06 11:07:37;;;;;;;5.87;3.70;;;30.10;46.50;;;;;;20588;6882;118228;-89
2022/09/06 11:10:03;;;;;;;4.97;3.67;;;29.90;46.80;;;;;;20562;6882;121420;-89
2022/09/06 11:12:31;;;;;;;5.30;4.18;;;29.80;47.40;;;;;;20379;6882;323327;-88
2022/09/06 11:14:57;;;;;;;6.03;4.20;;;30.00;45.90;;;;;;20381;6882;311313;-87
2022/09/06 11:17:22;;;;;;;7.40;4.13;;;30.30;44.00;;;;;;20394;6882;285030;-87
2022/09/06 11:20:01;;;;;;;5.97;4.18;;;30.60;44.20;;;;;;20362;6882;325410;-89
2022/09/06 11:22:40;;;;;;;5.17;4.17;;;30.80;44.30;;;;;;20560;6882;123406;-87
2022/09/06 11:25:18;;;;;;;6.20;4.30;;;30.60;45.10;;;;;;20602;6882;121125;-91
2022/09/06 11:27:44;;;;;;;6.33;4.30;;;30.30;46.10;;;;;;20588;6882;118434;-90
2022/09/06 11:30:12;;;;;;;7.22;4.40;;;30.00;46.60;;;;;;20404;6882;310010;-87
2022/09/06 11:32:38;;;;;;;7.00;4.03;;;30.10;45.40;;;;;;20388;6882;309969;-87
2022/09/06 11:35:03;;;;;;;7.87;4.00;;;30.30;44.70;;;;;;20610;6882;117941;-86
2022/09/06 11:37:32;;;;;;;5.87;3.75;;;30.20;46.00;;;;;;20379;6882;308801;-89
2022/09/06 11:40:17;;;;;;;6.50;3.70;;;30.10;44.40;;;;;;20598;6882;117596;-87
2022/09/06 11:42:43;;;;;;;7.57;4.30;;;30.00;45.50;;;;;;20398;6882;308791;-89
2022/09/06 11:45:12;;;;;;;6.53;3.70;;;30.00;44.90;;;;;;20598;6882;117473;-87
2022/09/06 11:47:44;;;;;;;6.40;3.93;;;29.90;45.90;;;;;;20370;6882;310040;-89
2022/09/06 11:50:19;;;;;;;8.53;3.90;;;29.90;45.30;;;;;;20609;6882;117444;-89
2022/09/06 11:53:05;;;;;;;7.10;3.70;;;29.90;46.20;;;;;;20002;6888;119881;-88
2022/09/06 11:55:30;;;;;;;4.50;3.50;;;29.70;47.00;;;;;;20563;6878;118351;-88
2022/09/06 11:57:56;;;;;;;12.00;3.80;;;29.60;47.50;;;;;;20550;6880;122298;-88
2022/09/06 12:00:25;;;;;;;6.87;3.90;;;29.50;47.20;;;;;;20354;6880;280410;-89
2022/09/06 12:02:50;;;;;;;4.50;3.80;;;29.90;45.60;;;;;;20347;6880;313169;-89
2022/09/06 12:05:19;;;;;;;5.57;3.90;;;30.30;45.20;;;;;;20571;6880;117632;-91
2022/09/06 12:08:17;;;;;;;7.27;3.83;;;30.50;46.00;;;;;;20315;6880;317129;-88
2022/09/06 12:10:46;;;;;;;6.70;4.07;;;30.70;45.50;;;;;;20600;6880;117362;-89
2022/09/06 12:13:31;;;;;;;5.10;3.80;;;30.70;46.10;;;;;;20611;6880;117778;-89
2022/09/06 12:15:58;;;;;;;8.43;3.83;;;30.70;46.80;;;;;;19775;6880;343984;-89
2022/09/06 12:18:46;;;;;;;7.37;3.43;;;30.90;44.10;;;;;;20613;6880;118229;-88
2022/09/06 12:21:34;;;;;;;7.77;4.07;;;31.00;45.00;;;;;;20614;6880;117769;-89
2022/09/06 12:24:00;;;;;;;6.33;3.80;;;30.90;45.90;;;;;;20402;6880;314564;-87
2022/09/06 12:26:49;;;;;;;6.40;4.07;;;31.10;43.70;;;;;;20609;6880;117864;-89
2022/09/06 12:29:14;;;;;;;7.77;3.57;;;31.00;44.80;;;;;;20622;6880;118183;-88
2022/09/06 12:31:57;;;;;;;8.80;3.73;;;30.90;44.70;;;;;;20386;6880;316188;-89
2022/09/06 12:34:30;;;;;;;6.18;4.00;;;31.10;43.00;;;;;;20416;6880;305694;-90
2022/09/06 12:37:09;;;;;;;4.67;3.10;;;31.30;42.20;;;;;;20612;6880;117418;-88
2022/09/06 12:39:34;;;;;;;7.17;3.40;;;31.20;43.00;;;;;;20602;6880;123719;-90
2022/09/06 12:42:03;;;;;;;5.78;3.75;;;30.90;43.80;;;;;;20409;6880;343318;-86
2022/09/06 12:44:31;;;;;;;6.67;3.30;;;30.90;42.70;;;;;;20610;6880;117600;-86
2022/09/06 12:46:57;;;;;;;5.37;3.60;;;31.00;43.70;;;;;;20390;6880;308757;-87
2022/09/06 12:49:22;;;;;;;8.17;3.50;;;31.10;42.40;;;;;;20595;6880;117514;-87
2022/09/06 12:51:49;;;;;;;4.73;3.40;;;31.10;43.20;;;;;;20392;6880;313743;-89
2022/09/06 12:54:21;;;;;;;7.67;3.50;;;31.30;41.40;;;;;;20395;6880;309172;-88
2022/09/06 12:56:48;;;;;;;8.48;3.30;;;31.60;42.70;;;;;;20371;6880;333056;-88
2022/09/06 12:59:22;;;;;;;6.37;3.30;;;31.80;41.20;;;;;;20607;6880;117913;-86
2022/09/06 13:01:56;;;;;;;3.60;3.10;;;31.70;41.80;;;;;;20593;6880;120550;-86
2022/09/06 13:04:28;;;;;;;3.83;3.20;;;31.50;42.40;;;;;;20642;6880;116539;-87
2022/09/06 13:06:54;;;;;;;3.77;3.20;;;31.20;42.90;;;;;;20557;6878;118136;-87
2022/09/06 13:09:20;;;;;;;5.77;2.90;;;30.90;42.90;;;;;;20616;6880;120068;-87